createdAt,value
2023-03-12T00:00:08.513Z,100243.19
2023-03-12T00:02:35.352Z,100244.00
2023-03-12T00:05:02.122Z,100244.94
2023-03-12T00:07:36.114Z,100243.16
2023-03-12T00:10:04.140Z,100245.81
2023-03-12T00:12:30.712Z,100243.22
2023-03-12T00:14:57.434Z,100243.94
2023-03-12T00:17:24.142Z,100247.53
2023-03-12T00:19:53.880Z,100239.63
2023-03-12T00:22:23.514Z,100248.31
2023-03-12T00:24:50.745Z,100244.06
2023-03-12T00:27:17.359Z,100255.34
2023-03-12T00:29:44.024Z,100253.56
2023-03-12T00:32:10.597Z,100241.50
2023-03-12T00:34:37.255Z,100251.03
2023-03-12T00:37:03.867Z,100248.44
2023-03-12T00:39:30.448Z,100244.94
2023-03-12T00:41:57.104Z,100249.28
2023-03-12T00:44:23.815Z,100243.22
2023-03-12T00:46:50.378Z,100244.94
2023-03-12T00:49:19.785Z,100251.88
2023-03-12T00:51:48.159Z,100248.38
2023-03-12T00:54:14.865Z,100248.41
2023-03-12T00:56:41.486Z,100238.88
2023-03-12T00:59:08.286Z,100244.91
2023-03-12T01:01:34.811Z,100245.78
2023-03-12T01:04:01.468Z,100242.25
2023-03-12T01:06:28.092Z,100248.38
2023-03-12T01:08:55.604Z,100244.91
2023-03-12T01:11:22.884Z,100241.47
2023-03-12T01:13:49.742Z,100241.50
2023-03-12T01:16:16.884Z,100243.22
2023-03-12T01:18:43.552Z,100236.28
2023-03-12T01:23:54.804Z,100244.97
2023-03-12T01:26:24.302Z,100243.22
2023-03-12T01:28:51.166Z,100241.50
2023-03-12T01:31:18.971Z,100243.25
2023-03-12T01:33:48.365Z,100243.28
2023-03-12T01:36:23.232Z,100238.94
2023-03-12T01:38:54.090Z,100240.66
2023-03-12T01:41:21.415Z,100244.09
2023-03-12T01:43:48.546Z,100246.75
2023-03-12T01:46:34.994Z,100240.69
2023-03-12T01:49:25.278Z,100246.72
2023-03-12T01:52:13.095Z,100245.00
2023-03-12T01:54:49.601Z,100248.47
2023-03-12T01:57:18.916Z,100246.75
2023-03-12T01:59:49.859Z,100243.31
2023-03-12T02:02:18.690Z,100246.75
2023-03-12T02:04:54.827Z,100249.38
2023-03-12T02:07:21.564Z,100245.94
2023-03-12T02:09:49.410Z,100246.81
2023-03-12T02:12:17.119Z,100246.81
2023-03-12T02:14:43.965Z,100251.13
2023-03-12T02:17:13.855Z,100261.50
2023-03-12T02:19:46.757Z,100257.19
2023-03-12T02:22:16.731Z,100256.31
2023-03-12T02:25:03.961Z,100257.16
2023-03-12T02:27:32.732Z,100265.84
2023-03-12T02:29:59.727Z,100271.00
2023-03-12T02:32:28.433Z,100274.50
2023-03-12T02:34:56.603Z,100269.28
2023-03-12T02:37:23.276Z,100270.91
2023-03-12T02:39:54.997Z,100272.59
2023-03-12T02:42:22.847Z,100276.13
2023-03-12T02:44:49.687Z,100270.94
2023-03-12T02:47:19.714Z,100271.78
2023-03-12T02:49:52.296Z,100274.41
2023-03-12T02:52:21.274Z,100281.25
2023-03-12T02:54:48.742Z,100279.59
2023-03-12T02:57:16.934Z,100277.91
2023-03-12T02:59:43.542Z,100277.84
2023-03-12T03:02:12.670Z,100279.53
2023-03-12T03:04:39.946Z,100284.72
2023-03-12T03:07:06.907Z,100278.69
2023-03-12T03:09:33.510Z,100290.88
2023-03-12T03:12:04.063Z,100290.06
2023-03-12T03:14:32.843Z,100292.59
2023-03-12T03:16:59.519Z,100289.19
2023-03-12T03:19:26.835Z,100301.34
2023-03-12T03:21:53.450Z,100290.94
2023-03-12T03:24:20.208Z,100294.44
2023-03-12T03:26:46.780Z,100297.00
2023-03-12T03:29:13.452Z,100301.34
2023-03-12T03:31:40.153Z,100291.84
2023-03-12T03:34:06.827Z,100292.69
2023-03-12T03:36:33.393Z,100301.34
2023-03-12T03:39:05.296Z,100295.31
2023-03-12T03:41:35.613Z,100290.97
2023-03-12T03:44:04.637Z,100290.13
2023-03-12T03:46:32.960Z,100299.63
2023-03-12T03:49:11.129Z,100298.78
2023-03-12T03:51:42.659Z,100306.53
2023-03-12T03:56:52.945Z,100307.41
2023-03-12T03:59:19.635Z,100304.81
2023-03-12T04:01:49.824Z,100303.94
2023-03-12T04:04:16.558Z,100310.03
2023-03-12T04:06:43.228Z,100312.63
2023-03-12T04:09:10.223Z,100303.94
2023-03-12T04:11:38.585Z,100307.44
2023-03-12T04:14:07.010Z,100310.03
2023-03-12T04:16:35.209Z,100300.50
2023-03-12T04:19:02.788Z,100295.31
2023-03-12T04:21:29.356Z,100297.91
2023-03-12T04:23:56.255Z,100290.13
2023-03-12T04:26:27.413Z,100295.31
2023-03-12T04:28:55.745Z,100295.31
2023-03-12T04:31:24.622Z,100297.03
2023-03-12T04:33:51.377Z,100297.03
2023-03-12T04:36:20.324Z,100288.38
2023-03-12T04:38:48.917Z,100285.81
2023-03-12T04:41:18.424Z,100290.09
2023-03-12T04:44:08.162Z,100281.44
2023-03-12T04:46:36.421Z,100283.16
2023-03-12T04:49:03.802Z,100286.66
2023-03-12T04:51:33.239Z,100282.31
2023-03-12T04:54:02.175Z,100282.31
2023-03-12T04:56:29.226Z,100279.72
2023-03-12T04:58:55.990Z,100287.53
2023-03-12T05:01:30.934Z,100278.84
2023-03-12T05:03:58.029Z,100277.97
2023-03-12T05:06:25.672Z,100280.56
2023-03-12T05:08:53.278Z,100282.31
2023-03-12T05:11:20.937Z,100279.69
2023-03-12T05:13:47.794Z,100280.56
2023-03-12T05:16:15.127Z,100281.44
2023-03-12T05:18:42.159Z,100282.28
2023-03-12T05:21:15.750Z,100290.09
2023-03-12T05:23:43.255Z,100290.97
2023-03-12T05:26:18.423Z,100293.56
2023-03-12T05:28:45.233Z,100287.47
2023-03-12T05:31:17.734Z,100291.81
2023-03-12T05:33:45.041Z,100290.94
2023-03-12T05:36:15.121Z,100284.91
2023-03-12T05:38:43.815Z,100290.06
2023-03-12T05:41:19.007Z,100295.28
2023-03-12T05:43:46.176Z,100297.00
2023-03-12T05:46:12.908Z,100288.38
2023-03-12T05:48:39.983Z,100282.25
2023-03-12T05:51:09.342Z,100281.34
2023-03-12T05:53:36.581Z,100288.28
2023-03-12T05:56:11.703Z,100280.50
2023-03-12T05:58:38.741Z,100279.59
2023-03-12T06:01:11.794Z,100286.53
2023-03-12T06:03:43.123Z,100282.13
2023-03-12T06:06:10.291Z,100279.50
2023-03-12T06:08:37.036Z,100283.81
2023-03-12T06:11:03.745Z,100280.41
2023-03-12T06:13:30.569Z,100280.31
2023-03-12T06:16:05.796Z,100281.16
2023-03-12T06:18:33.408Z,100272.53
2023-03-12T06:21:16.718Z,100272.47
2023-03-12T06:23:45.032Z,100267.25
2023-03-12T06:26:16.352Z,100269.91
2023-03-12T06:28:44.889Z,100266.50
2023-03-12T06:31:14.153Z,100267.38
2023-03-12T06:33:41.155Z,100269.16
2023-03-12T06:36:08.666Z,100268.22
2023-03-12T06:38:36.134Z,100264.75
2023-03-12T06:41:04.786Z,100263.75
2023-03-12T06:43:32.779Z,100268.88
2023-03-12T06:46:00.223Z,100269.03
2023-03-12T06:48:27.904Z,100258.41
2023-03-12T06:50:56.694Z,100256.50
2023-03-12T06:53:23.555Z,100251.06
2023-03-12T06:55:51.013Z,100249.50
2023-03-12T06:58:20.525Z,100248.31
2023-03-12T07:00:47.135Z,100238.16
2023-03-12T07:03:13.891Z,100240.84
2023-03-12T07:05:43.400Z,100243.53
2023-03-12T07:08:10.075Z,100241.69
2023-03-12T07:10:36.632Z,100242.50
2023-03-12T07:13:03.396Z,100246.03
2023-03-12T07:15:29.946Z,100251.91
2023-03-12T07:17:59.563Z,100246.47
2023-03-12T07:20:27.641Z,100248.88
2023-03-12T07:22:56.576Z,100248.84
2023-03-12T07:25:23.115Z,100245.63
2023-03-12T07:27:49.761Z,100245.69
2023-03-12T07:30:16.428Z,100251.53
2023-03-12T07:32:43.107Z,100250.69
2023-03-12T07:35:09.954Z,100247.28
2023-03-12T07:37:36.555Z,100244.06
2023-03-12T07:40:07.344Z,100246.94
2023-03-12T07:42:34.454Z,100242.41
2023-03-12T07:45:01.052Z,100261.94
2023-03-12T07:47:29.838Z,100254.88
2023-03-12T07:49:56.520Z,100249.44
2023-03-12T07:52:23.742Z,100247.25
2023-03-12T07:54:52.756Z,100250.84
2023-03-12T07:57:22.676Z,100245.06
2023-03-12T07:59:49.423Z,100244.06
2023-03-12T08:02:18.987Z,100237.28
2023-03-12T08:04:45.938Z,100233.28
2023-03-12T08:07:12.707Z,100241.31
2023-03-12T08:09:39.697Z,100235.94
2023-03-12T08:12:07.254Z,100251.38
2023-03-12T08:14:36.601Z,100248.84
2023-03-12T08:17:03.189Z,100246.03
2023-03-12T08:19:29.803Z,100249.81
2023-03-12T08:22:00.399Z,100243.38
2023-03-12T08:24:27.440Z,100242.66
2023-03-12T08:26:56.846Z,100238.56
2023-03-12T08:29:23.466Z,100243.53
2023-03-12T08:32:04.201Z,100245.53
2023-03-12T08:34:31.846Z,100243.94
2023-03-12T08:36:58.414Z,100239.28
2023-03-12T08:39:25.070Z,100248.50
2023-03-12T08:41:58.754Z,100239.63
2023-03-12T08:44:25.497Z,100222.84
2023-03-12T08:46:52.778Z,100220.63
2023-03-12T08:49:21.011Z,100216.69
2023-03-12T08:51:47.628Z,100199.88
2023-03-12T08:54:14.250Z,100200.63
2023-03-12T08:56:43.272Z,100199.66
2023-03-12T08:59:10.656Z,100197.25
2023-03-12T09:01:37.692Z,100198.16
2023-03-12T09:06:45.303Z,100193.06
2023-03-12T09:09:11.920Z,100197.22
2023-03-12T09:11:45.406Z,100190.53
2023-03-12T09:16:59.547Z,100192.75
2023-03-12T09:19:26.161Z,100199.66
2023-03-12T09:21:52.824Z,100204.34
2023-03-12T09:24:19.773Z,100211.03
2023-03-12T09:26:47.580Z,100215.53
2023-03-12T09:29:14.192Z,100214.88
2023-03-12T09:31:40.854Z,100217.59
2023-03-12T09:34:07.524Z,100219.47
2023-03-12T09:36:34.248Z,100205.22
2023-03-12T09:39:00.893Z,100205.22
2023-03-12T09:41:32.815Z,100201.72
2023-03-12T09:44:01.823Z,100194.38
2023-03-12T09:46:37.069Z,100193.97
2023-03-12T09:49:06.482Z,100193.19
2023-03-12T09:51:39.147Z,100186.13
2023-03-12T09:54:07.463Z,100179.06
2023-03-12T09:56:34.174Z,100180.03
2023-03-12T09:59:03.964Z,100178.31
2023-03-12T10:01:33.567Z,100169.03
2023-03-12T10:04:12.530Z,100163.94
2023-03-12T10:06:48.110Z,100160.88
2023-03-12T10:09:23.933Z,100159.09
2023-03-12T10:11:55.814Z,100159.84
2023-03-12T10:14:24.195Z,100153.06
2023-03-12T10:17:10.154Z,100140.31
2023-03-12T10:19:55.360Z,100131.13
2023-03-12T10:22:37.076Z,100125.66
2023-03-12T10:25:18.745Z,100127.00
2023-03-12T10:27:45.449Z,100115.63
2023-03-12T10:30:24.052Z,100108.22
2023-03-12T10:32:59.666Z,100094.94
2023-03-12T10:35:30.592Z,100091.25
2023-03-12T10:37:58.938Z,100088.22
2023-03-12T10:40:36.585Z,100093.69
2023-03-12T10:43:05.748Z,100090.81
2023-03-12T10:45:52.958Z,100088.50
2023-03-12T10:48:24.162Z,100097.25
2023-03-12T10:51:07.865Z,100092.22
2023-03-12T10:53:39.452Z,100087.28
2023-03-12T10:56:06.107Z,100081.09
2023-03-12T10:58:36.140Z,100077.13
2023-03-12T11:01:06.543Z,100071.50
2023-03-12T11:03:34.004Z,100081.19
2023-03-12T11:06:02.321Z,100071.69
2023-03-12T11:08:30.551Z,100074.28
2023-03-12T11:10:58.352Z,100070.25
2023-03-12T11:13:32.886Z,100062.31
2023-03-12T11:16:01.289Z,100062.22
2023-03-12T11:18:27.901Z,100060.38
2023-03-12T11:21:14.774Z,100049.84
2023-03-12T11:23:45.039Z,100044.59
2023-03-12T11:26:19.493Z,100041.53
2023-03-12T11:28:51.230Z,100038.41
2023-03-12T11:31:27.304Z,100037.59
2023-03-12T11:33:57.724Z,100039.00
2023-03-12T11:36:27.417Z,100039.59
2023-03-12T11:38:59.420Z,100036.69
2023-03-12T11:41:53.250Z,100027.34
2023-03-12T11:44:24.507Z,100028.06
2023-03-12T11:46:51.148Z,100030.31
2023-03-12T11:49:17.740Z,100015.16
2023-03-12T11:51:47.389Z,100010.53
2023-03-12T11:54:16.889Z,100003.72
2023-03-12T11:56:52.684Z,99990.59
2023-03-12T11:59:19.306Z,99989.78
2023-03-12T12:02:00.550Z,99993.06
2023-03-12T12:04:27.156Z,99977.19
2023-03-12T12:07:05.756Z,99977.69
2023-03-12T12:09:50.495Z,99973.81
2023-03-12T12:12:49.763Z,99968.50
2023-03-12T12:15:31.391Z,99964.03
2023-03-12T12:18:16.930Z,99957.22
2023-03-12T12:20:48.039Z,99947.88
2023-03-12T12:23:14.603Z,99945.03
2023-03-12T12:25:49.653Z,99946.78
2023-03-12T12:28:35.329Z,99938.44
2023-03-12T12:31:09.354Z,99932.94
2023-03-12T12:33:50.584Z,99940.00
2023-03-12T12:36:20.428Z,99944.41
2023-03-12T12:38:50.760Z,99933.38
2023-03-12T12:41:17.379Z,99933.28
2023-03-12T12:44:04.358Z,99924.59
2023-03-12T12:46:43.459Z,99918.09
2023-03-12T12:49:12.298Z,99914.97
2023-03-12T12:51:44.733Z,99914.31
2023-03-12T12:54:12.872Z,99912.25
2023-03-12T12:56:54.243Z,99917.31
2023-03-12T12:59:42.736Z,99906.47
2023-03-12T13:02:30.945Z,99910.56
2023-03-12T13:05:01.432Z,99916.34
2023-03-12T13:07:28.274Z,99903.94
2023-03-12T13:12:49.585Z,99894.81
2023-03-12T13:15:39.924Z,99896.28
2023-03-12T13:18:18.403Z,99892.28
2023-03-12T13:21:01.152Z,99893.19
2023-03-12T13:23:30.510Z,99890.47
2023-03-12T13:26:15.539Z,99887.09
2023-03-12T13:29:06.035Z,99879.25
2023-03-12T13:31:37.273Z,99864.59
2023-03-12T13:34:08.231Z,99867.81
2023-03-12T13:36:38.210Z,99867.78
2023-03-12T13:39:07.735Z,99866.66
2023-03-12T13:41:36.649Z,99870.34
2023-03-12T13:44:22.287Z,99871.13
2023-03-12T13:46:59.175Z,99868.72
2023-03-12T13:49:26.641Z,99864.69
2023-03-12T13:52:10.032Z,99863.34
2023-03-12T13:54:41.784Z,99865.56
2023-03-12T13:57:20.894Z,99849.78
2023-03-12T13:59:49.688Z,99843.31
2023-03-12T14:02:32.608Z,99837.47
2023-03-12T14:05:04.161Z,99842.31
2023-03-12T14:07:30.754Z,99835.69
2023-03-12T14:10:19.176Z,99836.91
2023-03-12T14:12:54.636Z,99830.97
2023-03-12T14:15:21.264Z,99834.28
2023-03-12T14:17:54.589Z,99829.09
2023-03-12T14:20:24.023Z,99819.75
2023-03-12T14:22:52.974Z,99822.34
2023-03-12T14:25:19.831Z,99829.63
2023-03-12T14:27:47.773Z,99835.97
2023-03-12T14:30:17.482Z,99836.63
2023-03-12T14:32:46.126Z,99838.53
2023-03-12T14:35:12.840Z,99839.81
2023-03-12T14:37:44.574Z,99849.97
2023-03-12T14:40:34.651Z,99849.38
2023-03-12T14:43:01.612Z,99846.50
2023-03-12T14:45:28.264Z,99839.16
2023-03-12T14:47:58.641Z,99823.16
2023-03-12T14:50:27.713Z,99814.09
2023-03-12T14:52:58.076Z,99815.19
2023-03-12T14:55:26.192Z,99815.19
2023-03-12T14:58:05.854Z,99818.75
2023-03-12T15:00:33.560Z,99813.00
2023-03-12T15:03:03.208Z,99810.31
2023-03-12T15:05:30.106Z,99790.81
2023-03-12T15:08:01.025Z,99790.78
2023-03-12T15:10:29.304Z,99797.22
2023-03-12T15:13:04.434Z,99795.66
2023-03-12T15:15:31.013Z,99794.28
2023-03-12T15:17:57.993Z,99793.31
2023-03-12T15:20:33.508Z,99802.94
2023-03-12T15:23:02.274Z,99797.22
2023-03-12T15:25:32.027Z,99792.44
2023-03-12T15:28:06.940Z,99786.75
2023-03-12T15:30:34.465Z,99781.13
2023-03-12T15:33:23.757Z,99777.72
2023-03-12T15:36:05.070Z,99780.16
2023-03-12T15:38:33.554Z,99766.06
2023-03-12T15:41:03.567Z,99769.78
2023-03-12T15:43:30.983Z,99768.28
2023-03-12T15:46:02.304Z,99759.66
2023-03-12T15:48:29.138Z,99764.66
2023-03-12T15:50:55.753Z,99752.50
2023-03-12T15:53:23.135Z,99753.66
2023-03-12T15:56:02.067Z,99752.63
2023-03-12T15:58:41.751Z,99752.34
2023-03-12T16:01:08.426Z,99753.66
2023-03-12T16:03:35.346Z,99744.75
2023-03-12T16:06:01.962Z,99747.53
2023-03-12T16:08:42.823Z,99757.38
2023-03-12T16:11:14.682Z,99755.19
2023-03-12T16:13:42.770Z,99754.41
2023-03-12T16:16:13.098Z,99741.56
2023-03-12T16:18:40.123Z,99744.97
2023-03-12T16:21:06.936Z,99734.38
2023-03-12T16:23:33.886Z,99741.84
2023-03-12T16:26:00.786Z,99737.25
2023-03-12T16:28:27.632Z,99742.53
2023-03-12T16:30:54.531Z,99747.69
2023-03-12T16:33:22.961Z,99722.69
2023-03-12T16:35:51.813Z,99736.19
2023-03-12T16:38:18.785Z,99741.38
2023-03-12T16:40:49.098Z,99725.78
2023-03-12T16:43:18.459Z,99731.97
2023-03-12T16:45:46.989Z,99739.75
2023-03-12T16:48:15.512Z,99728.03
2023-03-12T16:50:45.882Z,99724.06
2023-03-12T16:53:12.485Z,99724.88
2023-03-12T16:55:59.791Z,99725.06
2023-03-12T16:58:27.347Z,99724.38
2023-03-12T17:00:54.508Z,99729.19
2023-03-12T17:03:40.213Z,99729.13
2023-03-12T17:06:07.412Z,99729.88
2023-03-12T17:08:35.940Z,99732.78
2023-03-12T17:11:02.662Z,99730.50
2023-03-12T17:13:32.169Z,99724.28
2023-03-12T17:15:58.913Z,99728.84
2023-03-12T17:18:25.594Z,99727.13
2023-03-12T17:20:52.197Z,99723.63
2023-03-12T17:23:19.577Z,99734.59
2023-03-12T17:25:49.053Z,99726.97
2023-03-12T17:28:16.175Z,99723.84
2023-03-12T17:30:43.544Z,99723.91
2023-03-12T17:33:12.099Z,99722.19
2023-03-12T17:35:39.839Z,99725.34
2023-03-12T17:38:06.713Z,99724.91
2023-03-12T17:40:33.417Z,99726.06
2023-03-12T17:42:59.957Z,99738.97
2023-03-12T17:45:27.599Z,99732.84
2023-03-12T17:47:54.213Z,99739.53
2023-03-12T17:50:21.604Z,99744.41
2023-03-12T17:52:48.158Z,99731.03
2023-03-12T17:55:14.881Z,99744.13
2023-03-12T17:57:42.683Z,99738.56
2023-03-12T18:00:12.814Z,99743.81
2023-03-12T18:02:40.794Z,99741.63
2023-03-12T18:05:11.363Z,99744.13
2023-03-12T18:07:38.694Z,99736.00
2023-03-12T18:10:06.587Z,99737.50
2023-03-12T18:12:34.684Z,99743.56
2023-03-12T18:15:02.565Z,99737.47
2023-03-12T18:17:29.285Z,99739.81
2023-03-12T18:19:59.071Z,99738.09
2023-03-12T18:22:25.723Z,99735.47
2023-03-12T18:24:52.361Z,99727.41
2023-03-12T18:27:21.428Z,99738.88
2023-03-12T18:29:48.420Z,99738.09
2023-03-12T18:32:15.049Z,99753.91
2023-03-12T18:34:42.468Z,99753.81
2023-03-12T18:37:09.167Z,99755.34
2023-03-12T18:39:35.786Z,99743.63
2023-03-12T18:42:02.410Z,99740.56
2023-03-12T18:44:30.527Z,99738.00
2023-03-12T18:46:57.291Z,99736.75
2023-03-12T18:49:23.905Z,99744.94
2023-03-12T18:51:56.136Z,99736.44
2023-03-12T18:54:24.695Z,99740.03
2023-03-12T18:56:54.758Z,99726.16
2023-03-12T18:59:21.514Z,99738.06
2023-03-12T19:01:48.221Z,99739.28
2023-03-12T19:04:18.748Z,99734.25
2023-03-12T19:06:51.644Z,99736.53
2023-03-12T19:09:26.043Z,99742.88
2023-03-12T19:11:55.023Z,99739.88
2023-03-12T19:14:21.641Z,99741.34
2023-03-12T19:16:48.299Z,99737.38
2023-03-12T19:19:15.012Z,99733.09
2023-03-12T19:21:41.682Z,99745.22
2023-03-12T19:24:08.533Z,99733.28
2023-03-12T19:26:35.258Z,99733.84
2023-03-12T19:29:01.861Z,99726.06
2023-03-12T19:31:28.683Z,99735.91
2023-03-12T19:33:57.786Z,99735.91
2023-03-12T19:36:26.766Z,99746.13
2023-03-12T19:38:55.694Z,99740.38
2023-03-12T19:41:24.679Z,99740.38
2023-03-12T19:43:51.252Z,99732.16
2023-03-12T19:46:17.969Z,99731.78
2023-03-12T19:48:44.600Z,99744.59
2023-03-12T19:51:11.487Z,99737.63
2023-03-12T19:53:38.520Z,99737.63
2023-03-12T19:56:05.388Z,99740.19
2023-03-12T19:58:32.051Z,99740.94
2023-03-12T20:00:59.725Z,99742.66
2023-03-12T20:03:26.999Z,99726.88
2023-03-12T20:05:53.969Z,99730.75
2023-03-12T20:08:22.473Z,99733.75
2023-03-12T20:10:49.565Z,99733.75
2023-03-12T20:13:17.847Z,99724.75
2023-03-12T20:15:46.886Z,99721.34
2023-03-12T20:18:14.212Z,99726.66
2023-03-12T20:20:41.617Z,99717.69
2023-03-12T20:23:08.563Z,99723.97
2023-03-12T20:25:44.081Z,99722.72
2023-03-12T20:28:16.037Z,99733.22
2023-03-12T20:30:42.702Z,99722.72
2023-03-12T20:33:09.468Z,99713.41
2023-03-12T20:35:36.290Z,99709.59
2023-03-12T20:38:02.933Z,99710.91
2023-03-12T20:40:31.861Z,99712.22
2023-03-12T20:42:58.582Z,99714.78
2023-03-12T20:45:25.288Z,99718.81
2023-03-12T20:47:53.847Z,99719.75
2023-03-12T20:50:20.516Z,99731.72
2023-03-12T20:52:47.125Z,99727.16
2023-03-12T20:55:13.751Z,99723.84
2023-03-12T20:57:40.323Z,99722.03
2023-03-12T21:00:07.551Z,99720.41
2023-03-12T21:02:34.453Z,99715.63
2023-03-12T21:05:01.065Z,99704.56
2023-03-12T21:07:30.524Z,99722.03
2023-03-12T21:10:00.056Z,99735.31
2023-03-12T21:12:26.682Z,99726.34
2023-03-12T21:14:53.399Z,99729.59
2023-03-12T21:17:20.776Z,99735.25
2023-03-12T21:19:47.291Z,99741.53
2023-03-12T21:22:14.650Z,99740.41
2023-03-12T21:24:41.243Z,99737.66
2023-03-12T21:27:13.581Z,99732.94
2023-03-12T21:29:40.229Z,99732.41
2023-03-12T21:32:08.927Z,99731.72
2023-03-12T21:34:36.765Z,99731.97
2023-03-12T21:37:03.353Z,99727.69
2023-03-12T21:39:29.949Z,99732.94
2023-03-12T21:41:56.495Z,99731.66
2023-03-12T21:44:25.252Z,99736.19
2023-03-12T21:46:54.603Z,99736.84
2023-03-12T21:49:21.378Z,99733.78
2023-03-12T21:51:47.977Z,99731.53
2023-03-12T21:54:14.634Z,99735.22
2023-03-12T21:56:41.827Z,99739.78
2023-03-12T21:59:08.767Z,99730.25
2023-03-12T22:01:35.351Z,99734.72
2023-03-12T22:04:03.268Z,99723.63
2023-03-12T22:06:29.901Z,99722.25
2023-03-12T22:08:56.524Z,99716.88
2023-03-12T22:11:23.139Z,99713.56
2023-03-12T22:13:49.796Z,99710.63
2023-03-12T22:16:16.885Z,99705.94
2023-03-12T22:18:45.197Z,99697.06
2023-03-12T22:21:19.247Z,99698.84
2023-03-12T22:23:48.031Z,99688.63
2023-03-12T22:29:04.760Z,99685.91
2023-03-12T22:31:31.452Z,99680.66
2023-03-12T22:33:58.084Z,99680.13
2023-03-12T22:36:24.782Z,99676.75
2023-03-12T22:38:51.642Z,99688.34
2023-03-12T22:41:25.496Z,99679.84
2023-03-12T22:43:53.338Z,99682.53
2023-03-12T22:46:23.756Z,99670.00
2023-03-12T22:48:54.852Z,99672.09
2023-03-12T22:51:21.617Z,99670.25
2023-03-12T22:53:48.183Z,99677.28
2023-03-12T22:56:14.898Z,99671.50
2023-03-12T22:58:41.493Z,99660.06
2023-03-12T23:01:12.262Z,99663.84
2023-03-12T23:03:42.887Z,99654.00
2023-03-12T23:06:18.161Z,99653.59
2023-03-12T23:08:47.475Z,99643.63
2023-03-12T23:11:17.644Z,99642.59
2023-03-12T23:13:50.364Z,99631.88
2023-03-12T23:16:18.663Z,99640.66
2023-03-12T23:18:45.722Z,99633.56
2023-03-12T23:21:13.951Z,99636.00
2023-03-12T23:23:42.238Z,99631.00
2023-03-12T23:26:16.549Z,99621.28
2023-03-12T23:28:43.371Z,99609.38
2023-03-12T23:31:10.700Z,99614.50
2023-03-12T23:33:37.839Z,99604.44
2023-03-12T23:36:06.234Z,99618.91
2023-03-12T23:38:35.155Z,99611.34
2023-03-12T23:41:13.905Z,99604.03
2023-03-12T23:43:44.361Z,99610.84
2023-03-12T23:46:19.057Z,99610.63
2023-03-12T23:48:46.028Z,99607.75
2023-03-12T23:51:14.053Z,99611.13
2023-03-12T23:53:44.092Z,99605.09
2023-03-12T23:56:12.745Z,99597.59
2023-03-12T23:58:39.439Z,99606.16
